Time;durP1;ratioP1;P1;durP2;ratioP2;P2;SDS_P1;SDS_P2;PMS_P1;PMS_P2;Temp;Humidity;BMP_temperature;BMP_pressure;BME280_temperature;BME280_humidity;BME280_pressure;Samples;Min_cycle;Max_cycle;Signal;HPM_P1;HPM_P2
2022/07/17 00:01:27;;;;;;;5.40;3.20;;;11.90;99.90;;;;;;5114125;28;20112;-79
2022/07/17 00:03:54;;;;;;;7.30;3.25;;;11.90;99.90;;;;;;5117823;28;20453;-79
2022/07/17 00:06:21;;;;;;;7.13;3.40;;;11.90;99.90;;;;;;5118385;28;20097;-79
2022/07/17 00:08:48;;;;;;;4.85;3.22;;;11.90;99.90;;;;;;5099657;28;20055;-80
2022/07/17 00:11:15;;;;;;;10.07;3.80;;;11.90;99.90;;;;;;5116831;28;20052;-78
2022/07/17 00:13:42;;;;;;;12.52;3.95;;;11.80;99.90;;;;;;5117060;28;20461;-78
2022/07/17 00:16:09;;;;;;;5.75;4.15;;;11.80;99.90;;;;;;5099209;28;20061;-79
2022/07/17 00:18:37;;;;;;;9.05;4.00;;;11.70;99.90;;;;;;5117636;28;20112;-79
2022/07/17 00:21:04;;;;;;;7.97;3.28;;;11.80;99.90;;;;;;5099670;28;20051;-78
2022/07/17 00:23:31;;;;;;;5.60;3.30;;;11.70;99.90;;;;;;5117226;28;20051;-79
2022/07/17 00:25:58;;;;;;;16.65;3.90;;;11.70;99.90;;;;;;5098939;28;20089;-79
2022/07/17 00:28:25;;;;;;;8.23;3.42;;;11.70;99.90;;;;;;5117730;28;20047;-80
2022/07/17 00:30:52;;;;;;;6.32;3.63;;;11.60;99.90;;;;;;5117008;27;20100;-80
2022/07/17 00:33:19;;;;;;;5.63;2.95;;;11.60;99.90;;;;;;5117755;28;20445;-80
2022/07/17 00:35:47;;;;;;;8.05;3.13;;;11.50;99.90;;;;;;5117523;28;20401;-79
2022/07/17 00:38:14;;;;;;;9.77;3.63;;;11.60;99.90;;;;;;5116582;28;20040;-79
2022/07/17 00:40:42;;;;;;;7.40;3.70;;;11.50;99.90;;;;;;5099232;28;20054;-79
2022/07/17 00:43:09;;;;;;;7.85;3.47;;;11.50;99.90;;;;;;5118120;28;20059;-79
2022/07/17 00:45:36;;;;;;;6.85;3.42;;;11.50;99.90;;;;;;5098475;28;20509;-78
2022/07/17 00:48:05;;;;;;;5.35;3.25;;;11.50;99.90;;;;;;5095543;28;20055;-78
2022/07/17 00:50:35;;;;;;;5.85;3.22;;;11.40;99.90;;;;;;5096860;28;20105;-78
2022/07/17 00:53:04;;;;;;;8.23;4.23;;;11.40;99.90;;;;;;5095151;28;20048;-78
2022/07/17 00:55:31;;;;;;;10.13;4.55;;;11.40;99.90;;;;;;5096741;28;20048;-79
2022/07/17 00:58:01;;;;;;;9.40;5.45;;;11.30;99.90;;;;;;5096642;28;20408;-80
2022/07/17 01:00:28;;;;;;;15.83;5.47;;;11.20;99.90;;;;;;5094899;28;20056;-80
2022/07/17 01:02:55;;;;;;;7.38;4.65;;;11.20;99.90;;;;;;5096503;28;20047;-80
2022/07/17 01:05:24;;;;;;;10.25;4.55;;;11.20;99.90;;;;;;5094819;28;20132;-79
2022/07/17 01:07:52;;;;;;;8.30;4.50;;;11.20;99.90;;;;;;5095714;28;20071;-80
2022/07/17 01:10:21;;;;;;;8.30;4.32;;;11.20;99.90;;;;;;5110069;28;20044;-80
2022/07/17 01:12:48;;;;;;;8.68;4.63;;;11.20;99.90;;;;;;5113831;28;20567;-81
2022/07/17 01:15:16;;;;;;;8.43;4.68;;;11.20;99.90;;;;;;5115493;28;20055;-82
2022/07/17 01:17:44;;;;;;;10.85;4.85;;;11.10;99.90;;;;;;5102937;28;20101;-81
2022/07/17 01:20:12;;;;;;;9.98;4.95;;;11.10;99.90;;;;;;5094240;28;20052;-80
2022/07/17 01:22:46;;;;;;;7.70;4.85;;;11.10;99.90;;;;;;5095624;28;20058;-80
2022/07/17 01:25:13;;;;;;;8.50;4.75;;;11.00;99.90;;;;;;5095266;28;20056;-80
2022/07/17 01:27:41;;;;;;;7.45;4.82;;;11.00;99.90;;;;;;5094728;28;20515;-79
2022/07/17 01:30:09;;;;;;;7.45;4.45;;;11.00;99.90;;;;;;5099719;28;20048;-79
2022/07/17 01:32:38;;;;;;;7.38;4.60;;;11.00;99.90;;;;;;5115731;28;20100;-80
2022/07/17 01:35:06;;;;;;;10.52;4.90;;;10.90;99.90;;;;;;5115693;28;20368;-80
2022/07/17 01:37:33;;;;;;;10.38;5.03;;;10.90;99.90;;;;;;5116145;28;20559;-80
2022/07/17 01:40:02;;;;;;;11.05;4.57;;;10.90;99.90;;;;;;5117656;28;20047;-79
2022/07/17 01:42:29;;;;;;;9.45;4.93;;;10.90;99.90;;;;;;5118859;28;20046;-79
2022/07/17 01:44:56;;;;;;;9.40;4.57;;;10.90;99.90;;;;;;5115979;27;20460;-79
2022/07/17 01:47:24;;;;;;;7.88;4.38;;;10.90;99.90;;;;;;5128388;27;20108;-79
2022/07/17 01:49:55;;;;;;;7.43;4.53;;;10.90;99.90;;;;;;5135805;27;20043;-79
2022/07/17 01:52:22;;;;;;;10.13;4.68;;;10.80;99.90;;;;;;5136033;27;20498;-79
2022/07/17 01:54:49;;;;;;;5.40;4.53;;;10.80;99.90;;;;;;5135400;27;20759;-78
2022/07/17 01:57:18;;;;;;;11.50;4.90;;;10.80;99.90;;;;;;5136104;27;20108;-79
2022/07/17 01:59:45;;;;;;;8.07;5.13;;;10.70;99.90;;;;;;5136300;27;20054;-79
2022/07/17 02:02:15;;;;;;;8.18;4.35;;;10.80;99.90;;;;;;5135429;27;20047;-79
2022/07/17 02:04:42;;;;;;;10.95;4.28;;;10.80;99.90;;;;;;5117885;27;20054;-79
2022/07/17 02:07:10;;;;;;;7.65;4.38;;;10.80;99.90;;;;;;5135916;27;20043;-79
2022/07/17 02:09:37;;;;;;;7.35;4.32;;;10.70;99.90;;;;;;5134290;27;20482;-78
2022/07/17 02:12:05;;;;;;;7.35;4.20;;;10.70;99.90;;;;;;5136042;27;20050;-79
2022/07/17 02:14:34;;;;;;;5.63;4.38;;;10.70;99.90;;;;;;5117549;27;20099;-78
2022/07/17 02:17:00;;;;;;;7.80;4.22;;;10.70;99.90;;;;;;5116874;27;20047;-78
2022/07/17 02:19:27;;;;;;;6.82;4.18;;;10.70;99.90;;;;;;5117268;27;20047;-78
2022/07/17 02:21:54;;;;;;;6.30;4.18;;;10.70;99.90;;;;;;5117418;27;20498;-80
2022/07/17 02:24:21;;;;;;;6.25;3.65;;;10.70;99.90;;;;;;5133306;27;20047;-80
2022/07/17 02:26:48;;;;;;;7.60;3.90;;;10.70;99.90;;;;;;5135829;27;20050;-78
2022/07/17 02:29:15;;;;;;;9.93;3.85;;;10.70;99.90;;;;;;5135691;27;20047;-80
2022/07/17 02:31:43;;;;;;;9.65;3.97;;;10.70;99.90;;;;;;5117650;27;20054;-79
2022/07/17 02:34:10;;;;;;;4.95;3.40;;;10.80;99.90;;;;;;5114894;28;20031;-77
2022/07/17 02:36:37;;;;;;;9.25;4.47;;;10.70;99.90;;;;;;5096733;28;20055;-79
2022/07/17 02:39:04;;;;;;;4.97;3.92;;;10.70;99.90;;;;;;5121079;27;20047;-78
2022/07/17 02:41:31;;;;;;;8.82;4.53;;;10.70;99.90;;;;;;5116834;27;20487;-79
2022/07/17 02:43:58;;;;;;;5.95;3.90;;;10.70;99.90;;;;;;5116445;27;20047;-79
2022/07/17 02:46:25;;;;;;;8.65;3.80;;;10.70;99.90;;;;;;5135380;27;20517;-78
2022/07/17 02:48:53;;;;;;;6.50;4.18;;;10.60;99.90;;;;;;5135083;27;20055;-79
2022/07/17 02:51:20;;;;;;;7.00;4.00;;;10.60;99.90;;;;;;5116143;27;20486;-79
2022/07/17 02:53:47;;;;;;;7.07;3.75;;;10.60;99.90;;;;;;5096161;28;20051;-80
2022/07/17 02:56:14;;;;;;;5.70;3.25;;;10.50;99.90;;;;;;5096548;28;20059;-79
2022/07/17 02:58:40;;;;;;;7.25;3.88;;;10.50;99.90;;;;;;5113501;28;20429;-80
2022/07/17 03:01:07;;;;;;;7.47;3.78;;;10.50;99.90;;;;;;5096574;28;20116;-79
2022/07/17 03:03:34;;;;;;;5.47;3.80;;;10.50;99.90;;;;;;5114262;28;20056;-79
2022/07/17 03:06:02;;;;;;;4.93;3.60;;;10.50;99.90;;;;;;5095608;28;20108;-79
2022/07/17 03:08:29;;;;;;;9.80;3.80;;;10.40;99.90;;;;;;5114124;28;20100;-79
2022/07/17 03:10:56;;;;;;;5.40;3.63;;;10.40;99.90;;;;;;5096223;28;20134;-78
2022/07/17 03:13:23;;;;;;;7.30;4.03;;;10.40;99.90;;;;;;5095193;28;20096;-80
2022/07/17 03:15:50;;;;;;;7.13;4.03;;;10.40;99.90;;;;;;5122515;27;20491;-80
2022/07/17 03:18:17;;;;;;;6.88;3.63;;;10.30;99.90;;;;;;5116235;27;20410;-80
2022/07/17 03:20:44;;;;;;;7.97;4.32;;;10.30;99.90;;;;;;5108238;28;20163;-80
2022/07/17 03:23:12;;;;;;;5.20;3.78;;;10.30;99.90;;;;;;5113772;28;20044;-80
2022/07/17 03:25:39;;;;;;;8.45;4.18;;;10.30;99.90;;;;;;5114124;28;20050;-80
2022/07/17 03:28:06;;;;;;;8.32;4.22;;;10.40;99.90;;;;;;5095260;28;20178;-81
2022/07/17 03:30:33;;;;;;;11.77;4.53;;;10.40;99.90;;;;;;5095881;28;20104;-82
2022/07/17 03:32:59;;;;;;;6.53;3.60;;;10.30;99.90;;;;;;5113928;28;20078;-83
2022/07/17 03:35:26;;;;;;;6.88;4.00;;;10.30;99.90;;;;;;5114534;28;20052;-82
2022/07/17 03:37:53;;;;;;;7.95;4.38;;;10.30;99.90;;;;;;5114558;28;20054;-81
2022/07/17 03:40:21;;;;;;;8.52;3.85;;;10.40;99.90;;;;;;5113340;28;20764;-81
2022/07/17 03:42:48;;;;;;;7.00;3.92;;;10.30;99.90;;;;;;5095574;28;20093;-79
2022/07/17 03:45:15;;;;;;;8.38;3.80;;;10.50;99.90;;;;;;5095772;28;20051;-80
2022/07/17 03:47:42;;;;;;;14.90;4.68;;;10.40;99.90;;;;;;5112899;28;20055;-80
2022/07/17 03:50:09;;;;;;;7.07;3.65;;;10.50;99.90;;;;;;5095450;28;20051;-80
2022/07/17 03:52:36;;;;;;;6.25;4.05;;;10.50;99.90;;;;;;5128710;28;20051;-80
2022/07/17 03:55:03;;;;;;;8.23;3.80;;;10.60;99.90;;;;;;5134354;28;20047;-78
2022/07/17 03:57:32;;;;;;;7.88;4.10;;;10.70;99.90;;;;;;5140804;28;20043;-79
2022/07/17 03:59:58;;;;;;;6.63;4.15;;;10.70;99.90;;;;;;5126895;28;20580;-79
2022/07/17 04:02:25;;;;;;;7.30;3.92;;;10.80;99.90;;;;;;5125853;28;20103;-80
2022/07/17 04:04:52;;;;;;;6.50;3.92;;;10.80;99.90;;;;;;5135120;28;20051;-81
2022/07/17 04:07:28;;;;;;;7.43;4.03;;;10.90;99.90;;;;;;5119467;28;20436;-80
2022/07/17 04:09:56;;;;;;;6.25;3.85;;;11.00;99.90;;;;;;5112871;28;20070;-80
2022/07/17 04:12:24;;;;;;;8.48;3.75;;;11.10;99.90;;;;;;5113701;28;20389;-79
2022/07/17 04:14:52;;;;;;;5.47;3.83;;;11.10;99.90;;;;;;5094580;28;20040;-80
2022/07/17 04:17:19;;;;;;;9.77;3.78;;;11.20;99.90;;;;;;5111862;28;20054;-80
2022/07/17 04:19:46;;;;;;;10.30;4.70;;;11.30;99.90;;;;;;5093740;28;20047;-80
2022/07/17 04:22:13;;;;;;;7.80;3.67;;;11.40;99.90;;;;;;5094221;28;20079;-79
2022/07/17 04:24:41;;;;;;;5.95;3.63;;;11.40;99.90;;;;;;5095543;28;20046;-79
2022/07/17 04:27:08;;;;;;;7.47;3.35;;;11.50;99.90;;;;;;5096231;28;20052;-80
2022/07/17 04:29:35;;;;;;;8.80;3.80;;;11.60;99.90;;;;;;5100156;28;20101;-80
2022/07/17 04:32:04;;;;;;;5.47;3.38;;;11.60;99.90;;;;;;5105289;28;20047;-80
2022/07/17 04:34:32;;;;;;;7.80;3.53;;;11.70;99.90;;;;;;5122665;28;20051;-80
2022/07/17 04:36:59;;;;;;;7.18;3.38;;;11.70;99.90;;;;;;5115109;28;20083;-79
2022/07/17 04:39:26;;;;;;;5.10;3.38;;;11.70;99.90;;;;;;5119891;28;20055;-80
2022/07/17 04:41:53;;;;;;;6.85;3.92;;;11.80;99.90;;;;;;5115382;28;20043;-80
2022/07/17 04:44:20;;;;;;;5.38;3.13;;;11.80;99.90;;;;;;5114607;28;20452;-80
2022/07/17 04:46:47;;;;;;;7.82;3.10;;;11.90;99.90;;;;;;5133599;28;20054;-80
2022/07/17 04:49:15;;;;;;;10.98;3.83;;;11.90;99.90;;;;;;5116885;27;20091;-82
2022/07/17 04:51:42;;;;;;;11.73;3.92;;;12.00;99.90;;;;;;5106935;28;20051;-81
2022/07/17 04:54:09;;;;;;;7.90;3.72;;;12.00;99.90;;;;;;5116885;28;20047;-78
2022/07/17 04:56:36;;;;;;;6.90;3.75;;;12.00;99.90;;;;;;5099191;28;20107;-79
2022/07/17 04:59:03;;;;;;;5.40;3.60;;;11.90;99.90;;;;;;5098195;28;20396;-78
2022/07/17 05:01:30;;;;;;;5.90;3.50;;;12.00;99.90;;;;;;5098811;28;20058;-79
2022/07/17 05:03:57;;;;;;;6.43;3.35;;;12.00;99.90;;;;;;5116559;28;20482;-79
2022/07/17 05:06:25;;;;;;;5.68;3.33;;;11.90;99.90;;;;;;5127444;27;20051;-79
2022/07/17 05:08:52;;;;;;;9.23;3.28;;;12.00;99.90;;;;;;5119471;27;20092;-75
2022/07/17 05:11:19;;;;;;;14.82;3.70;;;12.00;99.90;;;;;;5122001;27;20058;-78
2022/07/17 05:13:47;;;;;;;4.55;2.60;;;12.00;99.90;;;;;;5118674;27;20103;-79
2022/07/17 05:16:14;;;;;;;5.20;3.10;;;12.10;99.90;;;;;;5138220;27;20051;-78
2022/07/17 05:18:41;;;;;;;4.20;2.55;;;12.20;99.90;;;;;;5119131;27;20454;-80
2022/07/17 05:21:08;;;;;;;6.35;3.45;;;12.20;99.90;;;;;;5118740;27;20050;-79
2022/07/17 05:23:36;;;;;;;6.22;3.25;;;12.20;99.90;;;;;;5136710;27;20047;-79
2022/07/17 05:26:03;;;;;;;5.35;2.33;;;12.30;99.90;;;;;;5137491;27;20047;-79
2022/07/17 05:28:30;;;;;;;4.93;2.90;;;12.40;99.90;;;;;;5118902;27;20047;-81
2022/07/17 05:30:57;;;;;;;4.05;2.45;;;12.40;99.90;;;;;;5118877;27;20051;-80
2022/07/17 05:33:23;;;;;;;8.77;2.83;;;12.50;99.90;;;;;;5118432;27;20051;-80
2022/07/17 05:35:50;;;;;;;6.93;2.55;;;12.50;99.90;;;;;;5131174;27;20092;-81
2022/07/17 05:38:17;;;;;;;4.28;2.75;;;12.60;99.90;;;;;;5099029;28;20055;-81
2022/07/17 05:40:45;;;;;;;13.10;3.40;;;12.80;99.90;;;;;;5115879;28;20047;-78
2022/07/17 05:43:12;;;;;;;8.68;2.90;;;12.90;99.90;;;;;;5098313;28;20059;-78
2022/07/17 05:45:39;;;;;;;4.00;2.33;;;13.00;99.90;;;;;;5098957;28;20453;-78
2022/07/17 05:48:07;;;;;;;6.68;2.75;;;13.10;99.90;;;;;;5115729;28;20051;-82
2022/07/17 05:50:34;;;;;;;6.22;2.40;;;13.30;99.90;;;;;;5104464;27;20126;-79
2022/07/17 05:53:01;;;;;;;7.78;2.05;;;13.90;99.90;;;;;;5127884;27;20495;-79
2022/07/17 05:55:28;;;;;;;6.78;2.28;;;14.40;99.90;;;;;;5109035;27;20050;-81
2022/07/17 05:57:57;;;;;;;4.53;2.05;;;14.90;99.90;;;;;;5134681;27;20051;-79
2022/07/17 06:00:24;;;;;;;7.75;2.40;;;15.40;99.90;;;;;;5133211;27;20043;-80
2022/07/17 06:02:51;;;;;;;5.30;2.00;;;15.80;99.90;;;;;;5129621;27;20051;-80
2022/07/17 06:05:17;;;;;;;5.75;2.20;;;16.20;99.90;;;;;;5130831;27;20088;-79
2022/07/17 06:07:44;;;;;;;3.58;1.80;;;16.50;99.90;;;;;;5114374;27;20063;-79
2022/07/17 06:10:11;;;;;;;5.05;2.00;;;16.80;99.90;;;;;;5113837;27;20115;-79
2022/07/17 06:12:38;;;;;;;3.30;1.83;;;17.00;99.90;;;;;;5129988;27;20051;-79
2022/07/17 06:15:07;;;;;;;12.15;1.92;;;17.30;99.90;;;;;;5130361;27;20092;-79
2022/07/17 06:17:34;;;;;;;7.35;2.15;;;17.60;99.90;;;;;;5127819;27;20124;-79
2022/07/17 06:20:01;;;;;;;3.97;1.75;;;17.90;99.90;;;;;;5132278;27;20099;-79
2022/07/17 06:22:28;;;;;;;7.45;1.80;;;18.00;99.90;;;;;;5116097;27;20047;-82
2022/07/17 06:24:55;;;;;;;4.20;1.67;;;18.10;99.90;;;;;;5131204;27;20046;-82
2022/07/17 06:27:22;;;;;;;5.88;1.85;;;18.30;99.90;;;;;;5129805;27;20046;-82
2022/07/17 06:29:49;;;;;;;7.32;2.38;;;18.50;99.90;;;;;;5114262;27;20051;-80
2022/07/17 06:32:18;;;;;;;5.75;1.80;;;18.60;99.90;;;;;;5112589;27;20054;-80
2022/07/17 06:34:45;;;;;;;6.03;1.42;;;18.90;99.90;;;;;;5119418;27;20043;-80
2022/07/17 06:37:12;;;;;;;8.23;1.85;;;19.00;99.90;;;;;;5119716;27;20081;-81
2022/07/17 06:39:38;;;;;;;6.10;1.45;;;19.10;99.90;;;;;;5142008;27;20446;-81
2022/07/17 06:42:06;;;;;;;6.82;1.52;;;19.00;99.90;;;;;;5110685;27;20043;-82
2022/07/17 06:44:34;;;;;;;12.02;1.85;;;19.00;99.90;;;;;;5129784;27;20167;-80
2022/07/17 06:47:01;;;;;;;7.53;1.50;;;18.90;99.90;;;;;;5112931;27;20495;-81
2022/07/17 06:49:29;;;;;;;8.15;1.67;;;18.80;99.90;;;;;;5115461;27;20563;-82
2022/07/17 06:51:56;;;;;;;5.80;1.67;;;18.50;99.90;;;;;;5126717;27;20047;-82
2022/07/17 06:54:25;;;;;;;4.82;1.50;;;18.40;99.90;;;;;;5112675;27;20047;-81
2022/07/17 06:56:52;;;;;;;5.32;1.48;;;18.40;99.90;;;;;;5108779;27;21768;-81
2022/07/17 06:59:19;;;;;;;5.60;1.83;;;18.30;99.90;;;;;;5128045;27;20398;-82
2022/07/17 07:01:46;;;;;;;6.65;1.73;;;18.20;99.90;;;;;;5126542;27;20058;-80
2022/07/17 07:04:13;;;;;;;6.05;1.80;;;18.20;99.90;;;;;;5114926;27;20424;-81
2022/07/17 07:06:42;;;;;;;5.50;1.67;;;18.10;99.90;;;;;;5128232;27;20047;-81
2022/07/17 07:09:09;;;;;;;7.75;1.25;;;18.10;99.90;;;;;;5111532;27;20498;-81
2022/07/17 07:11:39;;;;;;;4.55;1.85;;;18.20;99.90;;;;;;5106704;27;20066;-81
2022/07/17 07:14:07;;;;;;;4.13;1.23;;;18.30;99.90;;;;;;5133178;27;20039;-82
2022/07/17 07:16:34;;;;;;;2.65;1.10;;;18.30;99.90;;;;;;5110997;27;20095;-81
2022/07/17 07:19:01;;;;;;;6.50;1.50;;;18.20;99.90;;;;;;5134316;27;20043;-80
2022/07/17 07:21:28;;;;;;;6.18;1.42;;;18.20;99.90;;;;;;5135446;27;20074;-82
2022/07/17 07:23:56;;;;;;;4.25;1.27;;;18.20;99.90;;;;;;5126721;27;20051;-80
2022/07/17 07:26:25;;;;;;;4.60;1.88;;;18.30;99.90;;;;;;5126158;27;20070;-79
2022/07/17 07:28:52;;;;;;;4.32;1.10;;;18.50;99.90;;;;;;5126806;27;20052;-81
2022/07/17 07:31:19;;;;;;;10.55;2.38;;;18.40;99.90;;;;;;5127720;27;20047;-81
2022/07/17 07:33:46;;;;;;;4.78;1.50;;;18.60;99.90;;;;;;5127885;27;20092;-81
2022/07/17 07:36:13;;;;;;;4.78;1.48;;;18.70;99.90;;;;;;5112225;27;20498;-81
2022/07/17 07:38:40;;;;;;;5.78;1.40;;;18.80;99.90;;;;;;5127459;27;20047;-80
2022/07/17 07:41:08;;;;;;;4.22;2.00;;;18.90;99.90;;;;;;5110466;27;20092;-80
2022/07/17 07:43:35;;;;;;;2.75;1.40;;;19.00;99.90;;;;;;5109913;28;20047;-80
2022/07/17 07:46:04;;;;;;;4.97;1.55;;;19.00;99.90;;;;;;5131675;27;20039;-78
2022/07/17 07:48:31;;;;;;;4.80;1.38;;;19.10;99.90;;;;;;5127715;27;20083;-81
2022/07/17 07:50:59;;;;;;;6.05;1.58;;;19.30;99.90;;;;;;5127638;28;20046;-83
2022/07/17 07:53:26;;;;;;;6.47;1.35;;;19.40;99.90;;;;;;5113342;28;20095;-81
2022/07/17 07:55:53;;;;;;;7.13;1.42;;;19.50;99.90;;;;;;5131131;28;20054;-79
2022/07/17 07:58:21;;;;;;;4.63;1.52;;;19.50;99.90;;;;;;5110775;28;20044;-79
2022/07/17 08:00:48;;;;;;;6.00;1.30;;;19.60;99.90;;;;;;5113863;28;20058;-80
2022/07/17 08:03:15;;;;;;;3.13;1.15;;;19.80;99.90;;;;;;5113712;28;20568;-79
2022/07/17 08:05:43;;;;;;;5.93;1.55;;;20.00;99.90;;;;;;5114336;28;20792;-81
2022/07/17 08:08:10;;;;;;;6.13;1.50;;;20.40;99.90;;;;;;5126190;28;20051;-80
2022/07/17 08:10:37;;;;;;;3.60;1.10;;;21.00;99.90;;;;;;5109777;28;20436;-81
2022/07/17 08:13:04;;;;;;;4.35;1.30;;;21.90;99.90;;;;;;5108001;28;20047;-80
2022/07/17 08:15:32;;;;;;;4.53;1.23;;;22.80;99.40;;;;;;5109411;28;20433;-81
2022/07/17 08:18:00;;;;;;;4.82;1.45;;;23.60;97.70;;;;;;5125793;28;20047;-77
2022/07/17 08:20:27;;;;;;;6.55;1.40;;;24.10;96.50;;;;;;5113997;28;20475;-77
2022/07/17 08:22:54;;;;;;;5.97;1.40;;;24.60;95.10;;;;;;5124464;27;20108;-79
2022/07/17 08:25:21;;;;;;;4.25;1.38;;;25.10;94.00;;;;;;5116552;27;20104;-80
2022/07/17 08:27:48;;;;;;;3.97;1.00;;;25.20;92.90;;;;;;5110157;27;20486;-81
2022/07/17 08:30:15;;;;;;;3.45;0.98;;;25.60;92.10;;;;;;5133921;27;20099;-79
2022/07/17 08:32:44;;;;;;;8.05;1.45;;;25.70;91.10;;;;;;5118207;27;20066;-79
2022/07/17 08:35:12;;;;;;;2.70;1.10;;;25.80;89.40;;;;;;5116951;27;20556;-78
2022/07/17 08:37:50;;;;;;;6.22;1.35;;;25.70;88.80;;;;;;5119475;27;20088;-79
2022/07/17 08:40:22;;;;;;;4.63;0.93;;;25.80;84.10;;;;;;5122806;27;20065;-78
2022/07/17 08:42:50;;;;;;;3.65;1.15;;;26.00;83.90;;;;;;5138651;27;20043;-80
2022/07/17 08:45:17;;;;;;;5.55;1.02;;;26.20;85.90;;;;;;5132119;27;20179;-79
2022/07/17 08:47:46;;;;;;;4.97;1.30;;;26.40;85.30;;;;;;5113499;28;20059;-81
2022/07/17 08:50:13;;;;;;;4.80;1.23;;;26.60;83.30;;;;;;5112094;28;20050;-80
2022/07/17 08:52:42;;;;;;;3.78;0.90;;;26.80;84.30;;;;;;5104184;28;20090;-78
2022/07/17 08:55:10;;;;;;;5.22;1.65;;;27.20;82.70;;;;;;5111673;28;20094;-81
2022/07/17 08:57:40;;;;;;;6.53;1.23;;;27.30;82.00;;;;;;5111635;28;20051;-78
2022/07/17 09:00:10;;;;;;;3.92;1.13;;;27.70;81.20;;;;;;5110120;28;20048;-79
2022/07/17 09:02:37;;;;;;;3.35;1.23;;;27.70;80.00;;;;;;5109534;28;20414;-79
2022/07/17 09:05:06;;;;;;;3.83;0.95;;;27.50;79.20;;;;;;5109107;28;20040;-80
2022/07/17 09:07:33;;;;;;;;;;;27.70;78.70;;;;;;5108411;28;20039;-80
2022/07/17 09:10:00;;;;;;;5.13;1.17;;;27.80;76.20;;;;;;5112317;28;20336;-78
2022/07/17 09:12:29;;;;;;;3.00;0.80;;;27.90;79.10;;;;;;5110653;28;20050;-81
2022/07/17 09:14:56;;;;;;;4.05;1.02;;;27.80;77.50;;;;;;5105085;28;20055;-79
2022/07/17 09:17:26;;;;;;;3.95;1.25;;;27.90;78.10;;;;;;5112379;28;20092;-78
2022/07/17 09:19:53;;;;;;;5.05;1.27;;;28.20;76.50;;;;;;5110994;28;20075;-80
2022/07/17 09:22:23;;;;;;;3.90;1.60;;;28.10;75.60;;;;;;5107718;28;20077;-80
2022/07/17 09:24:50;;;;;;;;;;;28.20;74.50;;;;;;5105596;28;20491;-76
2022/07/17 09:27:30;;;;;;;6.60;1.20;;;27.70;73.90;;;;;;5109014;28;19941;-82
2022/07/17 09:30:00;;;;;;;5.03;1.42;;;27.90;73.50;;;;;;5110806;28;20851;-80
2022/07/17 09:32:29;;;;;;;3.20;1.15;;;27.80;75.00;;;;;;5106760;28;20445;-79
2022/07/17 09:34:58;;;;;;;5.13;1.17;;;27.90;74.30;;;;;;5104423;28;20112;-79
2022/07/17 09:37:28;;;;;;;3.63;1.00;;;28.40;74.60;;;;;;5108336;28;20306;-80
2022/07/17 09:39:56;;;;;;;4.30;1.10;;;28.80;74.30;;;;;;5109827;28;20073;-79
2022/07/17 09:42:25;;;;;;;3.53;1.20;;;29.20;74.20;;;;;;5111819;28;20514;-79
2022/07/17 09:44:56;;;;;;;;;;;29.30;72.60;;;;;;5110959;28;20040;-81
2022/07/17 09:47:24;;;;;;;3.35;1.00;;;29.30;68.80;;;;;;5106541;28;19924;-79
2022/07/17 09:49:52;;;;;;;2.95;1.10;;;29.40;72.30;;;;;;5111991;28;20043;-80
2022/07/17 09:52:20;;;;;;;3.00;0.90;;;29.30;71.30;;;;;;5111390;28;20108;-79
2022/07/17 09:54:49;;;;;;;4.85;1.10;;;29.10;70.40;;;;;;5107859;28;20309;-78
2022/07/17 09:57:17;;;;;;;3.92;1.27;;;29.20;69.50;;;;;;5108882;28;20069;-81
2022/07/17 09:59:45;;;;;;;3.50;1.20;;;29.20;70.40;;;;;;5112094;28;20449;-81
2022/07/17 10:02:13;;;;;;;3.65;0.80;;;29.50;69.80;;;;;;5104866;28;20043;-79
2022/07/17 10:04:41;;;;;;;2.38;0.95;;;29.60;70.20;;;;;;5109959;28;20051;-81
2022/07/17 10:07:09;;;;;;;3.30;1.02;;;29.40;69.00;;;;;;5106795;28;20044;-80
2022/07/17 10:09:36;;;;;;;4.22;1.23;;;29.70;68.90;;;;;;5110764;28;20075;-78
2022/07/17 10:12:06;;;;;;;3.03;0.98;;;29.80;68.30;;;;;;5103718;28;20066;-81
2022/07/17 10:14:34;;;;;;;2.95;1.15;;;29.60;67.80;;;;;;5107232;28;20495;-78
2022/07/17 10:17:08;;;;;;;3.58;0.80;;;29.40;67.90;;;;;;5109958;28;20039;-78
2022/07/17 10:19:44;;;;;;;3.08;0.90;;;29.40;67.70;;;;;;5103927;28;20075;-80
2022/07/17 10:22:11;;;;;;;2.20;0.90;;;29.50;68.60;;;;;;5107498;28;20093;-79
2022/07/17 10:24:46;;;;;;;3.72;1.02;;;29.80;68.10;;;;;;5109608;28;20059;-80
2022/07/17 10:27:23;;;;;;;2.85;1.20;;;30.10;65.70;;;;;;5109012;28;20104;-82
2022/07/17 10:30:02;;;;;;;3.75;1.20;;;30.40;66.00;;;;;;5105686;28;20043;-80
2022/07/17 10:32:29;;;;;;;2.97;0.90;;;30.00;65.30;;;;;;5108479;28;20043;-80
2022/07/17 10:35:00;;;;;;;4.82;1.25;;;29.90;67.00;;;;;;5105080;28;20108;-82
2022/07/17 10:37:31;;;;;;;6.40;1.10;;;29.80;65.80;;;;;;5110065;28;20399;-81
2022/07/17 10:40:04;;;;;;;2.35;0.90;;;30.10;66.60;;;;;;5111879;28;20087;-81
2022/07/17 10:42:57;;;;;;;3.10;1.05;;;30.00;66.30;;;;;;5109080;28;20495;-80
2022/07/17 10:45:27;;;;;;;3.20;1.02;;;30.10;66.40;;;;;;5105998;28;20062;-80
2022/07/17 10:47:56;;;;;;;2.03;1.02;;;30.30;66.60;;;;;;5111568;28;20101;-79
2022/07/17 10:50:27;;;;;;;2.40;1.00;;;30.70;66.00;;;;;;5108223;28;20044;-78
2022/07/17 10:53:05;;;;;;;2.53;1.00;;;30.50;65.00;;;;;;5112193;28;20047;-80
2022/07/17 10:55:33;;;;;;;3.00;1.10;;;30.30;65.00;;;;;;5107124;28;20054;-80
2022/07/17 10:58:02;;;;;;;2.97;1.02;;;31.00;65.60;;;;;;5109552;28;20444;-79
2022/07/17 11:00:29;;;;;;;5.05;1.70;;;30.70;64.60;;;;;;5104815;28;20052;-80
2022/07/17 11:02:56;;;;;;;3.50;1.05;;;30.90;64.60;;;;;;5104111;28;20051;-79
2022/07/17 11:05:23;;;;;;;4.28;1.05;;;31.00;64.60;;;;;;5110472;28;20052;-80
2022/07/17 11:07:55;;;;;;;3.60;1.10;;;31.00;64.60;;;;;;5109012;28;20123;-80
2022/07/17 11:10:23;;;;;;;4.80;1.52;;;31.10;64.20;;;;;;5108664;28;20384;-79
2022/07/17 11:12:51;;;;;;;3.38;0.93;;;31.60;64.60;;;;;;5108089;28;20088;-78
2022/07/17 11:15:19;;;;;;;4.20;0.98;;;31.70;64.10;;;;;;5107691;28;20047;-79
2022/07/17 11:17:48;;;;;;;4.28;1.17;;;31.60;64.10;;;;;;5105872;28;20056;-81
2022/07/17 11:20:16;;;;;;;3.10;1.08;;;31.80;63.70;;;;;;5109849;28;20055;-78
2022/07/17 11:22:43;;;;;;;3.80;1.30;;;31.70;63.70;;;;;;5103738;28;20120;-80
2022/07/17 11:25:11;;;;;;;2.78;1.10;;;31.70;63.40;;;;;;5106595;28;20088;-79
2022/07/17 11:27:39;;;;;;;3.30;1.00;;;31.70;63.00;;;;;;5103776;28;20047;-79
2022/07/17 11:30:13;;;;;;;3.28;1.15;;;31.40;63.00;;;;;;5111778;28;20058;-79
2022/07/17 11:32:42;;;;;;;2.65;1.00;;;31.50;62.90;;;;;;5092891;28;20055;-80
2022/07/17 11:35:16;;;;;;;3.10;1.20;;;31.20;63.10;;;;;;5107541;28;20414;-79
2022/07/17 11:37:44;;;;;;;2.63;1.20;;;31.40;61.40;;;;;;5110467;28;20052;-78
2022/07/17 11:40:11;;;;;;;3.53;1.33;;;31.00;62.90;;;;;;5113165;28;20055;-79
2022/07/17 11:42:38;;;;;;;2.90;1.10;;;30.80;62.90;;;;;;5114053;28;20092;-79
2022/07/17 11:45:06;;;;;;;2.47;1.20;;;31.00;63.20;;;;;;5113653;28;20070;-79
2022/07/17 11:47:33;;;;;;;2.65;1.33;;;31.10;63.10;;;;;;5126572;27;20491;-80
2022/07/17 11:50:13;;;;;;;3.03;1.38;;;31.60;63.10;;;;;;5134161;27;20046;-79
2022/07/17 11:52:40;;;;;;;;;;;32.00;61.20;;;;;;5134270;28;20047;-79
2022/07/17 11:55:08;;;;;;;3.20;1.30;;;32.00;61.10;;;;;;5134190;28;19919;-79
2022/07/17 11:57:44;;;;;;;2.38;1.13;;;31.90;61.80;;;;;;5116694;27;20058;-78
2022/07/17 12:00:12;;;;;;;2.83;0.90;;;32.00;60.00;;;;;;5119462;27;20050;-79
2022/07/17 12:02:39;;;;;;;2.20;1.10;;;31.90;61.10;;;;;;5138840;27;20092;-78
2022/07/17 12:05:08;;;;;;;1.95;1.00;;;31.90;61.20;;;;;;5138902;27;20055;-79
2022/07/17 12:07:43;;;;;;;1.92;1.05;;;31.60;61.00;;;;;;5119416;27;20099;-78
2022/07/17 12:10:16;;;;;;;2.78;1.30;;;31.70;60.10;;;;;;5138263;27;20563;-78
2022/07/17 12:12:56;;;;;;;2.97;1.13;;;31.90;60.70;;;;;;5138675;27;20055;-79
2022/07/17 12:15:34;;;;;;;2.22;1.10;;;31.50;60.40;;;;;;5119538;27;20483;-79
2022/07/17 12:18:01;;;;;;;2.53;1.27;;;31.40;61.10;;;;;;5120462;27;20130;-80
2022/07/17 12:20:41;;;;;;;4.50;1.33;;;31.20;61.40;;;;;;5119848;27;20043;-79
2022/07/17 12:23:08;;;;;;;4.35;1.48;;;31.60;61.90;;;;;;5119627;27;20055;-79
2022/07/17 12:25:35;;;;;;;5.80;1.65;;;31.60;61.60;;;;;;5138220;27;20452;-79
2022/07/17 12:28:02;;;;;;;2.83;1.23;;;31.80;60.90;;;;;;5119007;27;20547;-79
2022/07/17 12:30:28;;;;;;;3.38;1.70;;;31.60;61.10;;;;;;5119656;27;20059;-79
2022/07/17 12:32:55;;;;;;;2.13;1.42;;;31.70;60.50;;;;;;5119822;27;20072;-79
2022/07/17 12:35:22;;;;;;;3.00;1.52;;;31.90;60.20;;;;;;5119066;27;20059;-78
2022/07/17 12:37:50;;;;;;;3.83;1.50;;;31.70;60.20;;;;;;5119792;27;20111;-80
2022/07/17 12:40:17;;;;;;;2.63;1.40;;;32.00;60.50;;;;;;5137855;27;20075;-79
2022/07/17 12:42:44;;;;;;;4.20;1.67;;;32.10;60.60;;;;;;5137308;27;20499;-78
2022/07/17 12:45:12;;;;;;;3.58;1.80;;;32.30;60.10;;;;;;5119531;27;20456;-79
2022/07/17 12:47:39;;;;;;;3.03;1.63;;;32.50;59.90;;;;;;5137656;27;20051;-79
2022/07/17 12:50:07;;;;;;;3.45;1.63;;;32.50;59.70;;;;;;5118564;27;20550;-79
2022/07/17 12:52:34;;;;;;;2.73;1.63;;;32.10;60.30;;;;;;5137788;27;20071;-79